Thursday, May 25, 2017, 8:25 AM EDT

KRIC, Richmond International Airport

Location: Sandston, VA, United States Lat: 37.517
Local Time: 8:25 AM EDT (12:25 GMT) Lon: -77.317
Time Zone: US/Eastern Elev: 167 ft

Show me the last for .
Show Decoded

2017-05-25 07:54 METAR KRIC 251154Z 20006KT 10SM FEW140 SCT300 16/16 A2950 RMK AO2 SLP993 60009
                 70049 T01610156 10178 20150 51014 =
2017-05-25 06:54 METAR KRIC 251054Z 19004KT 10SM FEW007 FEW090 SCT140 BKN300 16/15 A2947 RMK AO2
                 WSHFT 0942 RAE11B32E41 SLP982 P0000 T01560150 =
2017-05-25 06:00 METAR KRIC 251000Z 26011G23KT 10SM -RA FEW005 BKN035 OVC090 16/15 A2948 RMK AO2
                 WSHFT 0942 P0000 T01610150 =
2017-05-25 05:54 METAR KRIC 250954Z 25013G32KT 10SM -RA SCT004 BKN015 OVC090 16/15 A2949 RMK AO2
                 PK WND 25032/0948 SLP990 P0004 T01610150 =
2017-05-25 04:59 METAR KRIC 250859Z 11005KT 2SM -RA BR OVC003 16/16 A2946 RMK AO2 SFC VIS 6 P0000
                 T01610161 =
2017-05-25 04:54 METAR KRIC 250854Z 10005KT 10SM -RA OVC003 16/16 A2946 RMK AO2 RAE15B42 SLP979
                 P0000 60005 T01610161 56035 =
2017-05-25 03:54 METAR KRIC 250754Z 10009KT 7SM -RA BKN004 OVC010 16/16 A2947 RMK AO2 SLP984
                 P0002 T01560156 =
2017-05-25 02:54 METAR KRIC 250654Z 09009KT 5SM -RA BR OVC004 15/15 A2951 RMK AO2 PRESFR SLP996
                 P0003 T01500150 =
2017-05-25 01:54 METAR KRIC 250554Z 11008KT 7SM -RA OVC004 15/15 A2956 RMK AO2 SLP014 P0006 60040
                 T01500150 10161 20139 56017 =
2017-05-25 00:54 METAR KRIC 250454Z 09011KT 7SM -RA OVC004 14/14 A2958 RMK AO2 SLP020 P0007
                 T01440144 401830139 =
2017-05-25 00:50 METAR KRIC 250450Z 09010KT 10SM -RA OVC004 14/14 A2958 =
2017-05-24 23:54 METAR KRIC 250354Z 10014KT 7SM -RA OVC006 15/14 A2961 RMK AO2 SLP030 P0004
                 T01500144 =
2017-05-24 23:27 METAR KRIC 250327Z 10011G17KT 10SM -RA OVC006 15/14 A2963 RMK AO2 P0003
                 T01500144 =
2017-05-24 22:54 METAR KRIC 250254Z 10010KT 2 1/2SM +RA BR BKN006 BKN024 OVC050 15/14 A2965 RMK
                 AO2 SLP043 P0008 60023 T01500144 58005 =
2017-05-24 21:54 METAR KRIC 250154Z 11012G17KT 8SM -RA BKN008 BKN025 OVC080 15/15 A2967 RMK AO2
                 SLP052 P0014 T01500150 =
2017-05-24 21:42 METAR KRIC 250142Z 10009KT 9SM -RA SCT008 BKN028 BKN060 16/15 A2967 RMK AO2
                 P0013 T01560150 =
2017-05-24 21:28 METAR KRIC 250128Z 10011KT 5SM -RA BR BKN009 BKN035 OVC095 16/15 A2967 RMK AO2
                 CB DSNT E CIG 007V013 P0012 T01560150 =
2017-05-24 21:14 METAR KRIC 250114Z 13007KT 2SM RA BR BKN008 OVC017 16/15 A2968 =
2017-05-24 20:54 METAR KRIC 250054Z 10007KT 4SM RA BR OVC009 16/15 A2968 RMK AO2 RAB21 SLP054
                 OCNL LTG S CB DSNT S P0001 T01560150 =
2017-05-24 20:23 METAR KRIC 250023Z 10010KT 10SM -RA BKN011 OVC021 16/15 A2967 RMK AO2 RAB21
                 P0000 T01610150 =
2017-05-24 19:54 METAR KRIC 242354Z 10009KT 10SM OVC009 16/15 A2966 RMK AO2 CIG 008V013 SLP049
                 60000 T01610150 10183 20161 58009 =
2017-05-24 19:44 METAR KRIC 242344Z 10009G17KT 10SM OVC009 17/15 A2966 RMK AO2 CIG 008V012
                 T01670150 =
2017-05-24 18:54 METAR KRIC 242254Z 10010KT 10SM OVC011 17/16 A2968 RMK AO2 SLP056 T01720156 =
2017-05-24 18:24 METAR KRIC 242224Z 10010KT 10SM BKN013 BKN032 OVC085 17/16 A2967 RMK AO2
                 T01720156 =
2017-05-24 17:54 METAR KRIC 242154Z 11008KT 10SM FEW009 OVC015 17/16 A2969 RMK AO2 SLP057
                 T01720156 =
2017-05-24 17:09 METAR KRIC 242109Z 08009KT 10SM BKN010 OVC018 17/16 A2969 RMK AO2 T01720156 =
2017-05-24 16:54 METAR KRIC 242054Z 08007KT 10SM OVC015 18/16 A2969 RMK AO2 DZE15 SLP058 CIG
                 011V018 P0000 60000 T01780161 56012 =
2017-05-24 16:29 METAR KRIC 242029Z 09009KT 10SM OVC012 18/16 A2969 RMK AO2 DZE15 CIG 010V018
                 P0000 T01780161 =
2017-05-24 16:15 METAR KRIC 242015Z 11008KT 10SM FEW009 BKN017 OVC027 18/16 A2969 RMK AO2 DZE15
                 P0000 T01780161 =
2017-05-24 15:54 METAR KRIC 241954Z 11007KT 9SM -DZ BKN010 OVC015 17/16 A2969 RMK AO2 DZB52 CIG
                 009V014 SLP060 P0000 T01720161 =
2017-05-24 14:54 METAR KRIC 241854Z 11008KT 10SM BKN012 OVC021 18/16 A2970 RMK AO2 SLP063
                 T01830161 =
2017-05-24 13:54 METAR KRIC 241754Z 10006KT 10SM OVC010 17/16 A2972 RMK AO2 SLP070 T01720156
                 10178 20150 56001 =
2017-05-24 12:54 METAR KRIC 241654Z 13007KT 10SM OVC012 17/15 A2973 RMK AO2 SLP071 T01720150 =
2017-05-24 11:54 METAR KRIC 241554Z 07008KT 10SM OVC013 18/16 A2971 RMK AO2 SLP066 T01780156 =
2017-05-24 11:34 METAR KRIC 241534Z 09005KT 10SM FEW010 OVC013 17/15 A2973 RMK AO2 T01670150 =
2017-05-24 10:54 METAR KRIC 241454Z 09007KT 10SM SCT010 OVC016 17/15 A2973 RMK AO2 SLP070
                 T01720150 51003 =
2017-05-24 10:48 METAR KRIC 241448Z 08007KT 10SM SCT010 OVC016 17/15 A2972 RMK AO2 =
2017-05-24 09:54 METAR KRIC 241354Z 07005KT 10SM BKN008 OVC014 16/15 A2972 RMK AO2 SLP068
                 T01610150 =
2017-05-24 08:54 METAR KRIC 241254Z 07004KT 10SM BKN007 OVC013 16/14 A2971 RMK AO2 CIG 006V011
                 SLP067 T01560144 =

Support USWX by starting your Amazon purchase here.